createdAt,value
2023-05-09T00:00:03.092Z,13.83
2023-05-09T00:01:03.069Z,13.88
2023-05-09T00:02:03.109Z,13.84
2023-05-09T00:03:03.077Z,13.80
2023-05-09T00:04:03.215Z,13.81
2023-05-09T00:05:03.056Z,13.91
2023-05-09T00:06:03.023Z,13.83
2023-05-09T00:07:03.054Z,13.80
2023-05-09T00:08:03.017Z,13.68
2023-05-09T00:09:03.083Z,13.80
2023-05-09T00:10:03.081Z,13.83
2023-05-09T00:11:02.991Z,13.86
2023-05-09T00:12:02.995Z,13.87
2023-05-09T00:13:03.095Z,13.93
2023-05-09T00:14:02.980Z,13.90
2023-05-09T00:15:02.977Z,13.88
2023-05-09T00:16:03.074Z,13.87
2023-05-09T00:17:02.943Z,13.87
2023-05-09T00:18:02.961Z,13.83
2023-05-09T00:19:02.963Z,13.84
2023-05-09T00:20:02.941Z,13.75
2023-05-09T00:21:02.926Z,13.90
2023-05-09T00:22:03.027Z,13.87
2023-05-09T00:23:02.920Z,13.79
2023-05-09T00:24:02.898Z,13.75
2023-05-09T00:25:02.955Z,13.81
2023-05-09T00:26:02.923Z,13.76
2023-05-09T00:27:02.880Z,13.79
2023-05-09T00:28:02.953Z,13.87
2023-05-09T00:29:02.874Z,13.88
2023-05-09T00:30:02.912Z,13.90
2023-05-09T00:31:02.848Z,13.94
2023-05-09T00:32:02.930Z,13.98
2023-05-09T00:33:02.870Z,13.99
2023-05-09T00:34:03.239Z,13.96
2023-05-09T00:35:02.840Z,14.05
2023-05-09T00:36:02.816Z,13.93
2023-05-09T00:37:02.789Z,13.91
2023-05-09T00:38:02.779Z,13.98
2023-05-09T00:39:02.798Z,14.01
2023-05-09T00:40:02.831Z,13.99
2023-05-09T00:41:02.839Z,13.93
2023-05-09T00:42:02.754Z,13.96
2023-05-09T00:43:02.761Z,13.98
2023-05-09T00:44:02.745Z,13.98
2023-05-09T00:45:02.799Z,13.99
2023-05-09T00:46:02.790Z,14.05
2023-05-09T00:47:02.726Z,13.98
2023-05-09T00:48:02.760Z,13.98
2023-05-09T00:49:02.695Z,14.01
2023-05-09T00:50:02.690Z,14.01
2023-05-09T00:51:02.730Z,14.16
2023-05-09T00:52:02.741Z,14.04
2023-05-09T00:53:02.673Z,14.05
2023-05-09T00:54:02.742Z,14.09
2023-05-09T00:55:02.724Z,14.12
2023-05-09T00:56:02.697Z,14.16
2023-05-09T00:57:02.752Z,14.13
2023-05-09T00:58:02.687Z,14.16
2023-05-09T00:59:02.645Z,14.12
2023-05-09T01:00:02.658Z,14.19
2023-05-09T01:01:02.658Z,14.08
2023-05-09T01:02:02.613Z,14.12
2023-05-09T01:03:02.686Z,14.12
2023-05-09T01:04:02.627Z,14.16
2023-05-09T01:05:02.628Z,14.16
2023-05-09T01:06:02.596Z,14.04
2023-05-09T01:07:02.577Z,14.16
2023-05-09T01:08:02.596Z,14.12
2023-05-09T01:09:02.583Z,14.13
2023-05-09T01:10:02.610Z,14.08
2023-05-09T01:11:02.576Z,13.98
2023-05-09T01:12:02.567Z,13.94
2023-05-09T01:13:02.672Z,14.04
2023-05-09T01:14:02.540Z,14.02
2023-05-09T01:15:02.524Z,14.04
2023-05-09T01:16:02.587Z,14.06
2023-05-09T01:17:02.511Z,14.11
2023-05-09T01:18:02.592Z,14.06
2023-05-09T01:19:02.511Z,14.17
2023-05-09T01:20:02.503Z,14.16
2023-05-09T01:21:02.494Z,14.04
2023-05-09T01:22:02.513Z,14.09
2023-05-09T01:23:02.468Z,14.13
2023-05-09T01:24:02.449Z,14.08
2023-05-09T01:25:02.437Z,14.06
2023-05-09T01:26:02.477Z,14.05
2023-05-09T01:27:02.425Z,13.98
2023-05-09T01:28:02.507Z,14.08
2023-05-09T01:29:02.479Z,14.08
2023-05-09T01:30:02.448Z,14.02
2023-05-09T01:31:02.419Z,14.02
2023-05-09T01:32:02.389Z,14.05
2023-05-09T01:33:02.423Z,14.11
2023-05-09T01:34:02.425Z,13.99
2023-05-09T01:35:02.381Z,14.02
2023-05-09T01:36:02.344Z,14.02
2023-05-09T01:37:02.376Z,13.96
2023-05-09T01:38:02.335Z,13.94
2023-05-09T01:39:02.349Z,14.11
2023-05-09T01:40:02.631Z,13.94
2023-05-09T01:41:02.341Z,13.99
2023-05-09T01:42:02.355Z,14.01
2023-05-09T01:43:02.316Z,14.13
2023-05-09T01:44:02.382Z,14.12
2023-05-09T01:45:02.357Z,14.06
2023-05-09T01:46:02.325Z,14.01
2023-05-09T01:47:02.344Z,13.96
2023-05-09T01:48:02.324Z,14.12
2023-05-09T01:49:02.265Z,13.99
2023-05-09T01:50:02.267Z,14.11
2023-05-09T01:51:02.281Z,13.91
2023-05-09T01:52:02.321Z,13.93
2023-05-09T01:53:02.273Z,13.98
2023-05-09T01:54:02.237Z,14.08
2023-05-09T01:55:02.302Z,14.11
2023-05-09T01:56:02.245Z,14.01
2023-05-09T01:57:02.210Z,14.11
2023-05-09T01:58:02.270Z,14.08
2023-05-09T01:59:02.197Z,14.08
2023-05-09T02:00:02.174Z,14.05
2023-05-09T02:01:02.398Z,14.12
2023-05-09T02:02:02.234Z,14.04
2023-05-09T02:03:02.212Z,14.02
2023-05-09T02:04:02.174Z,14.09
2023-05-09T02:05:02.191Z,14.04
2023-05-09T02:06:02.137Z,14.01
2023-05-09T02:07:02.154Z,14.08
2023-05-09T02:08:02.131Z,14.09
2023-05-09T02:09:02.150Z,14.09
2023-05-09T02:10:02.157Z,14.06
2023-05-09T02:11:02.147Z,14.02
2023-05-09T02:12:02.130Z,14.02
2023-05-09T02:13:02.122Z,14.02
2023-05-09T02:14:02.089Z,14.06
2023-05-09T02:15:02.136Z,14.08
2023-05-09T02:16:02.169Z,14.02
2023-05-09T02:17:02.150Z,14.12
2023-05-09T02:18:02.123Z,14.06
2023-05-09T02:19:02.078Z,13.98
2023-05-09T02:20:02.074Z,14.04
2023-05-09T02:21:02.058Z,14.08
2023-05-09T02:22:02.064Z,13.96
2023-05-09T02:23:02.052Z,14.01
2023-05-09T02:24:02.034Z,14.01
2023-05-09T02:25:02.032Z,13.94
2023-05-09T02:26:02.008Z,13.98
2023-05-09T02:27:02.012Z,13.94
2023-05-09T02:28:02.054Z,13.99
2023-05-09T02:29:01.998Z,14.01
2023-05-09T02:30:01.980Z,13.91
2023-05-09T02:31:01.987Z,13.94
2023-05-09T02:32:02.000Z,13.99
2023-05-09T02:33:02.067Z,14.01
2023-05-09T02:34:01.999Z,14.04
2023-05-09T02:35:01.941Z,14.02
2023-05-09T02:36:01.948Z,14.04
2023-05-09T02:37:01.915Z,14.12
2023-05-09T02:38:01.936Z,13.99
2023-05-09T02:39:01.901Z,13.93
2023-05-09T02:40:01.982Z,13.94
2023-05-09T02:41:01.898Z,13.93
2023-05-09T02:42:01.905Z,14.04
2023-05-09T02:43:01.877Z,14.02
2023-05-09T02:44:01.866Z,13.99
2023-05-09T02:45:01.858Z,13.93
2023-05-09T02:46:02.382Z,13.86
2023-05-09T02:47:01.866Z,13.90
2023-05-09T02:48:01.879Z,13.91
2023-05-09T02:49:01.918Z,13.94
2023-05-09T02:50:01.829Z,14.01
2023-05-09T02:51:01.832Z,13.94
2023-05-09T02:52:01.846Z,13.93
2023-05-09T02:53:01.807Z,13.84
2023-05-09T02:54:01.819Z,13.83
2023-05-09T02:55:01.796Z,13.91
2023-05-09T02:56:01.783Z,13.90
2023-05-09T02:57:01.767Z,13.88
2023-05-09T02:58:12.126Z,13.88
2023-05-09T02:59:02.773Z,13.88
2023-05-09T03:00:01.772Z,13.86
2023-05-09T03:01:01.752Z,14.02
2023-05-09T03:02:01.748Z,14.09
2023-05-09T03:03:01.797Z,13.98
2023-05-09T03:04:01.779Z,14.05
2023-05-09T03:05:01.798Z,14.04
2023-05-09T03:06:01.713Z,14.11
2023-05-09T03:07:01.690Z,14.13
2023-05-09T03:08:01.736Z,14.02
2023-05-09T03:09:01.689Z,14.04
2023-05-09T03:10:01.742Z,13.94
2023-05-09T03:11:01.674Z,13.93
2023-05-09T03:12:01.684Z,13.91
2023-05-09T03:13:01.693Z,13.87
2023-05-09T03:14:01.694Z,13.75
2023-05-09T03:15:01.651Z,13.73
2023-05-09T03:16:01.703Z,13.72
2023-05-09T03:17:01.635Z,13.76
2023-05-09T03:18:01.686Z,13.80
2023-05-09T03:19:01.636Z,13.75
2023-05-09T03:20:04.148Z,13.84
2023-05-09T03:21:01.668Z,13.91
2023-05-09T03:22:01.672Z,13.73
2023-05-09T03:23:01.587Z,13.75
2023-05-09T03:24:01.587Z,13.75
2023-05-09T03:25:01.557Z,13.91
2023-05-09T03:26:01.567Z,13.88
2023-05-09T03:27:02.959Z,13.79
2023-05-09T03:28:01.920Z,13.81
2023-05-09T03:29:01.555Z,13.79
2023-05-09T03:30:01.553Z,13.80
2023-05-09T03:31:01.527Z,13.76
2023-05-09T03:32:01.504Z,13.73
2023-05-09T03:33:01.527Z,13.72
2023-05-09T03:34:01.553Z,13.69
2023-05-09T03:35:01.521Z,13.63
2023-05-09T03:36:01.515Z,13.75
2023-05-09T03:37:01.605Z,13.68
2023-05-09T03:38:01.474Z,13.69
2023-05-09T03:39:01.459Z,13.68
2023-05-09T03:40:01.513Z,13.76
2023-05-09T03:41:01.448Z,13.83
2023-05-09T03:42:01.472Z,13.76
2023-05-09T03:43:01.427Z,13.79
2023-05-09T03:44:01.463Z,13.81
2023-05-09T03:45:01.458Z,13.90
2023-05-09T03:46:01.457Z,13.88
2023-05-09T03:47:01.458Z,13.90
2023-05-09T03:48:01.413Z,13.99
2023-05-09T03:49:01.407Z,13.90
2023-05-09T03:50:01.445Z,13.86
2023-05-09T03:51:01.378Z,13.73
2023-05-09T03:52:01.848Z,13.84
2023-05-09T03:53:01.444Z,13.86
2023-05-09T03:54:01.370Z,13.80
2023-05-09T03:55:01.347Z,13.81
2023-05-09T03:56:01.385Z,13.72
2023-05-09T03:57:01.349Z,13.79
2023-05-09T03:58:01.410Z,13.79
2023-05-09T03:59:01.348Z,13.83
2023-05-09T04:00:01.358Z,13.80
2023-05-09T04:01:01.331Z,13.90
2023-05-09T04:02:01.335Z,13.91
2023-05-09T04:03:01.404Z,13.94
2023-05-09T04:04:01.388Z,14.02
2023-05-09T04:05:01.327Z,13.93
2023-05-09T04:06:01.276Z,13.91
2023-05-09T04:07:01.298Z,14.02
2023-05-09T04:08:01.264Z,13.93
2023-05-09T04:09:01.268Z,14.05
2023-05-09T04:10:01.297Z,14.02
2023-05-09T04:11:01.223Z,14.04
2023-05-09T04:12:01.228Z,14.06
2023-05-09T04:13:01.248Z,14.05
2023-05-09T04:14:01.210Z,14.11
2023-05-09T04:15:01.217Z,14.06
2023-05-09T04:16:01.267Z,14.09
2023-05-09T04:17:01.278Z,14.11
2023-05-09T04:18:01.232Z,14.19
2023-05-09T04:19:01.170Z,14.11
2023-05-09T04:20:01.287Z,14.11
2023-05-09T04:21:01.180Z,14.27
2023-05-09T04:22:01.199Z,14.17
2023-05-09T04:23:01.179Z,14.24
2023-05-09T04:24:01.143Z,14.17
2023-05-09T04:25:01.217Z,14.30
2023-05-09T04:26:01.137Z,14.24
2023-05-09T04:27:01.110Z,14.27
2023-05-09T04:28:01.133Z,14.38
2023-05-09T04:29:01.125Z,14.36
2023-05-09T04:30:01.115Z,14.38
2023-05-09T04:31:01.237Z,14.34
2023-05-09T04:32:01.220Z,14.26
2023-05-09T04:33:01.131Z,14.29
2023-05-09T04:34:01.175Z,14.20
2023-05-09T04:35:01.075Z,14.29
2023-05-09T04:36:01.052Z,14.19
2023-05-09T04:37:01.035Z,14.29
2023-05-09T04:38:01.028Z,14.20
2023-05-09T04:39:01.038Z,14.09
2023-05-09T04:40:01.075Z,14.16
2023-05-09T04:41:01.091Z,14.20
2023-05-09T04:42:01.017Z,14.17
2023-05-09T04:43:01.004Z,14.24
2023-05-09T04:44:01.017Z,14.30
2023-05-09T04:45:00.975Z,14.21
2023-05-09T04:46:01.019Z,14.34
2023-05-09T04:47:00.979Z,14.35
2023-05-09T04:48:01.041Z,14.38
2023-05-09T04:49:00.963Z,14.27
2023-05-09T04:50:00.970Z,14.41
2023-05-09T04:51:00.949Z,14.38
2023-05-09T04:52:00.968Z,14.30
2023-05-09T04:53:00.925Z,14.34
2023-05-09T04:54:00.920Z,14.39
2023-05-09T04:55:00.946Z,14.39
2023-05-09T04:56:00.920Z,14.48
2023-05-09T04:57:10.213Z,14.54
2023-05-09T04:58:02.386Z,14.63
2023-05-09T04:59:00.868Z,14.52
2023-05-09T05:00:00.867Z,14.56
2023-05-09T05:01:00.862Z,14.61
2023-05-09T05:02:00.920Z,14.71
2023-05-09T05:03:00.861Z,14.85
2023-05-09T05:04:00.894Z,14.95
2023-05-09T05:05:10.853Z,15.01
2023-05-09T05:06:01.835Z,15.18
2023-05-09T05:07:00.842Z,15.13
2023-05-09T05:08:00.832Z,15.23
2023-05-09T05:09:00.833Z,15.31
2023-05-09T05:10:00.822Z,15.25
2023-05-09T05:11:00.779Z,15.30
2023-05-09T05:12:02.866Z,15.15
2023-05-09T05:13:00.819Z,15.30
2023-05-09T05:14:00.780Z,15.25
2023-05-09T05:15:00.762Z,15.34
2023-05-09T05:16:00.823Z,15.34
2023-05-09T05:17:00.734Z,15.38
2023-05-09T05:18:00.805Z,15.46
2023-05-09T05:19:00.732Z,15.46
2023-05-09T05:20:00.726Z,15.58
2023-05-09T05:21:00.733Z,15.27
2023-05-09T05:22:00.734Z,15.22
2023-05-09T05:23:00.829Z,15.30
2023-05-09T05:24:00.690Z,15.20
2023-05-09T05:25:00.685Z,15.28
2023-05-09T05:26:00.663Z,15.30
2023-05-09T05:27:00.674Z,15.27
2023-05-09T05:28:00.714Z,15.22
2023-05-09T05:29:00.728Z,15.35
2023-05-09T05:30:00.669Z,15.48
2023-05-09T05:31:00.638Z,15.43
2023-05-09T05:32:00.677Z,15.37
2023-05-09T05:33:00.618Z,15.41
2023-05-09T05:34:00.634Z,15.67
2023-05-09T05:35:00.618Z,15.74
2023-05-09T05:36:00.608Z,15.88
2023-05-09T05:37:00.587Z,15.95
2023-05-09T05:38:00.594Z,15.99
2023-05-09T05:39:00.572Z,16.23
2023-05-09T05:40:00.609Z,16.25
2023-05-09T05:41:00.561Z,16.29
2023-05-09T05:42:00.576Z,16.08
2023-05-09T05:43:00.562Z,15.92
2023-05-09T05:44:00.541Z,15.91
2023-05-09T05:45:00.619Z,15.84
2023-05-09T05:46:00.609Z,15.86
2023-05-09T05:47:00.524Z,16.03
2023-05-09T05:48:00.558Z,16.08
2023-05-09T05:49:00.514Z,16.13
2023-05-09T05:50:00.484Z,15.96
2023-05-09T05:51:00.534Z,15.93
2023-05-09T05:52:00.544Z,15.92
2023-05-09T05:53:00.482Z,15.95
2023-05-09T05:54:00.482Z,16.10
2023-05-09T05:55:00.503Z,16.22
2023-05-09T05:56:00.471Z,16.36
2023-05-09T05:57:00.448Z,16.37
2023-05-09T05:58:00.478Z,16.50
2023-05-09T05:59:00.433Z,16.48
2023-05-09T06:00:00.432Z,16.30
2023-05-09T06:01:00.511Z,16.13
2023-05-09T06:02:00.489Z,16.08
2023-05-09T06:03:00.528Z,15.98
2023-05-09T06:04:00.620Z,15.86
2023-05-09T06:05:00.388Z,15.95
2023-05-09T06:06:00.385Z,15.96
2023-05-09T06:07:00.378Z,15.95
2023-05-09T06:08:00.373Z,16.07
2023-05-09T06:09:00.375Z,16.25
2023-05-09T06:10:00.389Z,16.33
2023-05-09T06:11:00.358Z,16.51
2023-05-09T06:12:00.330Z,16.51
2023-05-09T06:13:00.419Z,16.67
2023-05-09T06:14:00.317Z,16.88
2023-05-09T06:15:00.327Z,16.92
2023-05-09T06:16:15.141Z,17.18
2023-05-09T06:17:01.405Z,17.18
2023-05-09T06:18:00.328Z,17.06
2023-05-09T06:19:00.320Z,17.00
2023-05-09T06:20:00.280Z,16.82
2023-05-09T06:21:00.294Z,16.54
2023-05-09T06:22:00.316Z,16.42
2023-05-09T06:23:00.261Z,16.34
2023-05-09T06:24:07.856Z,16.45
2023-05-09T06:25:01.236Z,16.55
2023-05-09T06:26:00.257Z,16.54
2023-05-09T06:27:00.233Z,16.75
2023-05-09T06:28:00.306Z,16.77
2023-05-09T06:29:00.230Z,16.85
2023-05-09T06:30:01.437Z,16.72
2023-05-09T06:31:00.272Z,16.62
2023-05-09T06:32:00.306Z,16.67
2023-05-09T06:33:00.370Z,16.62
2023-05-09T06:34:00.239Z,16.69
2023-05-09T06:35:00.182Z,16.51
2023-05-09T06:36:00.221Z,16.44
2023-05-09T06:37:00.168Z,16.65
2023-05-09T06:38:00.168Z,16.77
2023-05-09T06:39:00.145Z,16.90
2023-05-09T06:40:00.264Z,17.00
2023-05-09T06:41:00.144Z,17.15
2023-05-09T06:42:00.133Z,17.27
2023-05-09T06:43:00.114Z,17.45
2023-05-09T06:44:00.135Z,17.45
2023-05-09T06:45:00.155Z,17.51
2023-05-09T06:46:00.210Z,17.65
2023-05-09T06:47:00.067Z,17.80
2023-05-09T06:48:00.158Z,17.99
2023-05-09T06:49:00.137Z,18.07
2023-05-09T06:50:00.053Z,17.95
2023-05-09T06:51:00.056Z,18.05
2023-05-09T06:52:00.107Z,18.17
2023-05-09T06:53:00.057Z,18.25
2023-05-09T06:54:00.085Z,18.26
2023-05-09T06:55:00.042Z,18.34
2023-05-09T06:56:00.028Z,18.46
2023-05-09T06:57:00.033Z,18.44
2023-05-09T06:58:00.025Z,18.47
2023-05-09T06:59:00.019Z,18.60
2023-05-09T06:59:59.984Z,18.76
2023-05-09T07:00:59.971Z,18.74
2023-05-09T07:02:00.054Z,18.50
2023-05-09T07:03:00.004Z,18.47
2023-05-09T07:04:00.022Z,18.16
2023-05-09T07:05:00.105Z,18.04
2023-05-09T07:05:59.944Z,18.19
2023-05-09T07:06:59.931Z,18.19
2023-05-09T07:07:59.936Z,18.29
2023-05-09T07:08:59.925Z,18.31
2023-05-09T07:10:10.626Z,18.28
2023-05-09T07:11:00.927Z,18.07
2023-05-09T07:11:59.915Z,17.68
2023-05-09T07:12:59.906Z,17.80
2023-05-09T07:13:59.898Z,17.92
2023-05-09T07:14:59.913Z,18.21
2023-05-09T07:15:59.977Z,18.34
2023-05-09T07:17:13.860Z,18.64
2023-05-09T07:18:00.882Z,18.75
2023-05-09T07:18:59.872Z,18.96
2023-05-09T07:19:59.868Z,18.87
2023-05-09T07:20:59.922Z,18.90
2023-05-09T07:21:59.892Z,18.76
2023-05-09T07:22:59.913Z,18.74
2023-05-09T07:23:59.823Z,18.65
2023-05-09T07:24:59.818Z,18.66
2023-05-09T07:25:59.815Z,18.60
2023-05-09T07:26:59.790Z,18.50
2023-05-09T07:27:59.826Z,18.53
2023-05-09T07:28:59.957Z,18.64
2023-05-09T07:29:59.784Z,18.75
2023-05-09T07:30:59.757Z,18.87
2023-05-09T07:31:59.803Z,18.91
2023-05-09T07:32:59.796Z,18.49
2023-05-09T07:33:59.781Z,18.44
2023-05-09T07:34:59.776Z,18.35
2023-05-09T07:35:59.721Z,18.54
2023-05-09T07:36:59.781Z,18.49
2023-05-09T07:37:59.722Z,18.49
2023-05-09T07:38:59.689Z,18.57
2023-05-09T07:39:59.789Z,18.74
2023-05-09T07:40:59.675Z,19.06
2023-05-09T07:41:59.689Z,19.34
2023-05-09T07:42:59.714Z,19.40
2023-05-09T07:43:59.676Z,19.53
2023-05-09T07:44:59.649Z,19.52
2023-05-09T07:45:59.747Z,19.34
2023-05-09T07:46:59.670Z,19.28
2023-05-09T07:47:59.729Z,19.17
2023-05-09T07:48:59.662Z,19.07
2023-05-09T07:49:59.618Z,18.84
2023-05-09T07:50:59.650Z,18.91
2023-05-09T07:51:59.661Z,18.94
2023-05-09T07:52:59.665Z,19.02
2023-05-09T07:53:59.577Z,18.83
2023-05-09T07:54:59.581Z,18.62
2023-05-09T07:55:59.584Z,18.64
2023-05-09T07:56:59.539Z,18.76
2023-05-09T07:57:59.569Z,18.71
2023-05-09T07:58:59.542Z,18.64
2023-05-09T07:59:59.544Z,18.82
2023-05-09T08:00:59.546Z,18.84
2023-05-09T08:01:59.538Z,19.13
2023-05-09T08:02:59.754Z,19.40
2023-05-09T08:03:59.675Z,19.46
2023-05-09T08:04:59.490Z,19.50
2023-05-09T08:05:59.517Z,19.52
2023-05-09T08:06:59.465Z,19.42
2023-05-09T08:07:59.469Z,19.12
2023-05-09T08:08:59.464Z,18.96
2023-05-09T08:09:59.476Z,19.16
2023-05-09T08:10:59.461Z,18.93
2023-05-09T08:11:59.441Z,19.01
2023-05-09T08:12:59.508Z,19.15
2023-05-09T08:13:59.432Z,19.46
2023-05-09T08:14:59.431Z,19.39
2023-05-09T08:15:59.851Z,19.34
2023-05-09T08:16:59.395Z,19.60
2023-05-09T08:17:59.442Z,19.87
2023-05-09T08:18:59.405Z,19.89
2023-05-09T08:19:59.383Z,20.07
2023-05-09T08:20:59.394Z,20.30
2023-05-09T08:21:59.402Z,20.23
2023-05-09T08:22:59.368Z,19.98
2023-05-09T08:23:59.365Z,20.04
2023-05-09T08:24:59.432Z,20.30
2023-05-09T08:25:59.427Z,20.51
2023-05-09T08:26:59.346Z,20.44
2023-05-09T08:27:59.353Z,20.16
2023-05-09T08:28:59.296Z,20.26
2023-05-09T08:29:59.309Z,20.40
2023-05-09T08:30:59.290Z,20.40
2023-05-09T08:31:59.309Z,19.98
2023-05-09T08:32:59.326Z,19.83
2023-05-09T08:33:59.316Z,20.22
2023-05-09T08:34:59.288Z,20.38
2023-05-09T08:35:59.288Z,20.27
2023-05-09T08:36:59.256Z,20.42
2023-05-09T08:37:59.246Z,20.23
2023-05-09T08:38:59.235Z,20.44
2023-05-09T08:39:59.274Z,20.41
2023-05-09T08:40:59.311Z,20.25
2023-05-09T08:41:59.228Z,20.40
2023-05-09T08:42:59.230Z,20.26
2023-05-09T08:43:59.208Z,20.23
2023-05-09T08:44:59.207Z,20.10
2023-05-09T08:45:59.339Z,19.67
2023-05-09T08:46:59.277Z,19.52
2023-05-09T08:47:59.203Z,19.47
2023-05-09T08:48:59.166Z,19.64
2023-05-09T08:49:59.141Z,19.78
2023-05-09T08:50:59.123Z,19.62
2023-05-09T08:51:59.181Z,19.53
2023-05-09T08:52:59.175Z,19.31
2023-05-09T08:53:59.110Z,19.31
2023-05-09T08:54:59.110Z,19.46
2023-05-09T08:55:59.104Z,19.52
2023-05-09T08:56:59.157Z,19.92
2023-05-09T08:57:59.159Z,20.12
2023-05-09T08:58:59.187Z,20.05
2023-05-09T08:59:59.074Z,20.10
2023-05-09T09:00:59.087Z,19.95
2023-05-09T09:01:59.122Z,19.89
2023-05-09T09:02:59.126Z,19.86
2023-05-09T09:03:59.097Z,20.17
2023-05-09T09:04:59.054Z,20.88
2023-05-09T09:05:59.130Z,20.98
2023-05-09T09:06:59.036Z,21.26
2023-05-09T09:07:59.002Z,21.59
2023-05-09T09:08:59.018Z,21.90
2023-05-09T09:09:59.051Z,21.43
2023-05-09T09:10:59.016Z,21.21
2023-05-09T09:11:59.015Z,21.12
2023-05-09T09:12:59.079Z,20.75
2023-05-09T09:13:58.985Z,20.64
2023-05-09T09:14:58.990Z,20.57
2023-05-09T09:15:59.158Z,20.61
2023-05-09T09:16:58.975Z,20.51
2023-05-09T09:17:59.014Z,20.25
2023-05-09T09:18:59.221Z,20.15
2023-05-09T09:19:58.925Z,20.19
2023-05-09T09:20:58.935Z,19.92
2023-05-09T09:21:59.157Z,20.00
2023-05-09T09:22:58.919Z,19.98
2023-05-09T09:23:58.914Z,20.02
2023-05-09T09:24:58.942Z,20.08
2023-05-09T09:25:59.880Z,20.30
2023-05-09T09:26:58.938Z,20.27
2023-05-09T09:27:59.083Z,20.30
2023-05-09T09:28:58.952Z,20.33
2023-05-09T09:29:58.876Z,20.50
2023-05-09T09:30:58.855Z,20.73
2023-05-09T09:31:58.884Z,20.54
2023-05-09T09:32:58.880Z,20.38
2023-05-09T09:33:58.981Z,20.26
2023-05-09T09:34:58.828Z,20.33
2023-05-09T09:35:58.798Z,20.34
2023-05-09T09:36:58.822Z,20.40
2023-05-09T09:37:59.874Z,20.27
2023-05-09T09:38:58.858Z,20.48
2023-05-09T09:39:58.833Z,20.27
2023-05-09T09:40:58.810Z,20.37
2023-05-09T09:41:58.778Z,20.31
2023-05-09T09:42:58.801Z,20.56
2023-05-09T09:43:58.887Z,20.57
2023-05-09T09:44:58.793Z,20.64
2023-05-09T09:45:58.825Z,20.53
2023-05-09T09:46:58.737Z,20.46
2023-05-09T09:47:58.809Z,20.46
2023-05-09T09:48:58.699Z,20.26
2023-05-09T09:49:58.728Z,20.23
2023-05-09T09:50:58.719Z,20.22
2023-05-09T09:51:58.793Z,20.27
2023-05-09T09:52:58.690Z,20.23
2023-05-09T09:53:58.717Z,20.17
2023-05-09T09:54:58.672Z,20.23
2023-05-09T09:55:58.824Z,20.15
2023-05-09T09:56:58.676Z,20.17
2023-05-09T09:57:58.710Z,20.25
2023-05-09T09:58:58.638Z,20.38
2023-05-09T09:59:58.696Z,20.51
2023-05-09T10:00:58.660Z,20.58
2023-05-09T10:01:58.661Z,20.64
2023-05-09T10:02:58.704Z,20.72
2023-05-09T10:03:58.706Z,20.58
2023-05-09T10:04:58.694Z,20.44
2023-05-09T10:05:58.607Z,20.19
2023-05-09T10:06:58.596Z,20.12
2023-05-09T10:07:58.564Z,20.04
2023-05-09T10:08:58.568Z,20.05
2023-05-09T10:09:58.618Z,20.16
2023-05-09T10:10:58.636Z,20.08
2023-05-09T10:11:58.530Z,20.02
2023-05-09T10:12:58.635Z,19.92
2023-05-09T10:13:58.592Z,19.94
2023-05-09T10:14:58.519Z,19.98
2023-05-09T10:15:58.697Z,20.17
2023-05-09T10:16:58.665Z,20.35
2023-05-09T10:17:58.643Z,20.23
2023-05-09T10:18:58.584Z,20.38
2023-05-09T10:19:58.526Z,20.57
2023-05-09T10:20:58.554Z,20.40
2023-05-09T10:21:58.883Z,20.68
2023-05-09T10:22:58.485Z,20.87
2023-05-09T10:23:58.459Z,20.85
2023-05-09T10:24:58.470Z,20.69
2023-05-09T10:25:58.425Z,20.81
2023-05-09T10:26:58.430Z,20.91
2023-05-09T10:27:58.486Z,21.13
2023-05-09T10:28:58.522Z,21.06
2023-05-09T10:29:58.427Z,20.93
2023-05-09T10:30:58.468Z,20.68
2023-05-09T10:31:58.439Z,20.96
2023-05-09T10:32:58.516Z,20.60
2023-05-09T10:33:58.406Z,20.57
2023-05-09T10:34:58.378Z,20.50
2023-05-09T10:35:58.380Z,20.60
2023-05-09T10:36:58.344Z,21.09
2023-05-09T10:37:58.402Z,21.36
2023-05-09T10:38:58.365Z,21.36
2023-05-09T10:39:58.361Z,21.43
2023-05-09T10:40:58.388Z,21.43
2023-05-09T10:41:58.333Z,21.68
2023-05-09T10:42:58.301Z,22.05
2023-05-09T10:43:58.314Z,22.15
2023-05-09T10:44:58.294Z,21.90
2023-05-09T10:45:58.406Z,21.81
2023-05-09T10:46:58.436Z,21.81
2023-05-09T10:47:58.352Z,21.56
2023-05-09T10:48:59.400Z,21.27
2023-05-09T10:49:58.273Z,21.24
2023-05-09T10:50:58.317Z,21.70
2023-05-09T10:51:58.318Z,21.81
2023-05-09T10:52:58.240Z,21.66
2023-05-09T10:53:58.273Z,21.37
2023-05-09T10:54:58.232Z,21.45
2023-05-09T10:55:58.216Z,21.49
2023-05-09T10:56:58.211Z,21.82
2023-05-09T10:57:58.292Z,21.53
2023-05-09T10:58:58.179Z,21.56
2023-05-09T10:59:58.186Z,21.59
2023-05-09T11:00:58.318Z,21.96
2023-05-09T11:01:58.234Z,22.26
2023-05-09T11:02:58.289Z,22.41
2023-05-09T11:03:58.281Z,22.27
2023-05-09T11:04:58.230Z,22.06
2023-05-09T11:05:58.215Z,21.89
2023-05-09T11:06:58.140Z,21.61
2023-05-09T11:07:58.202Z,21.67
2023-05-09T11:08:58.127Z,21.40
2023-05-09T11:09:58.241Z,21.33
2023-05-09T11:10:58.192Z,21.43
2023-05-09T11:11:58.158Z,21.37
2023-05-09T11:12:58.486Z,21.27
2023-05-09T11:13:58.135Z,21.21
2023-05-09T11:14:58.185Z,21.01
2023-05-09T11:15:58.257Z,21.12
2023-05-09T11:16:58.129Z,20.56
2023-05-09T11:17:58.174Z,20.81
2023-05-09T11:18:58.126Z,20.85
2023-05-09T11:19:58.126Z,20.73
2023-05-09T11:20:58.154Z,20.41
2023-05-09T11:21:58.195Z,20.33
2023-05-09T11:22:58.114Z,20.20
2023-05-09T11:23:58.072Z,20.12
2023-05-09T11:24:58.093Z,20.04
2023-05-09T11:25:58.091Z,20.04
2023-05-09T11:26:58.065Z,20.20
2023-05-09T11:27:58.560Z,20.35
2023-05-09T11:28:58.093Z,20.50
2023-05-09T11:29:58.066Z,20.56
2023-05-09T11:30:58.020Z,20.66
2023-05-09T11:31:58.048Z,20.61
2023-05-09T11:32:58.109Z,20.66
2023-05-09T11:33:58.036Z,20.53
2023-05-09T11:34:58.188Z,20.44
2023-05-09T11:35:58.034Z,20.61
2023-05-09T11:36:58.022Z,20.76
2023-05-09T11:37:59.040Z,20.76
2023-05-09T11:38:57.965Z,20.78
2023-05-09T11:39:58.128Z,20.63
2023-05-09T11:40:57.942Z,20.53
2023-05-09T11:41:57.903Z,20.63
2023-05-09T11:42:58.821Z,20.50
2023-05-09T11:43:57.879Z,20.37
2023-05-09T11:44:57.925Z,20.44
2023-05-09T11:45:58.004Z,20.46
2023-05-09T11:46:57.876Z,20.22
2023-05-09T11:47:57.931Z,20.27
2023-05-09T11:48:57.894Z,20.33
2023-05-09T11:49:57.903Z,20.57
2023-05-09T11:50:57.891Z,20.68
2023-05-09T11:51:57.944Z,20.83
2023-05-09T11:52:57.956Z,20.88
2023-05-09T11:53:57.841Z,20.96
2023-05-09T11:54:57.909Z,21.06
2023-05-09T11:55:57.902Z,21.19
2023-05-09T11:56:57.792Z,21.15
2023-05-09T11:57:59.989Z,21.30
2023-05-09T11:58:57.790Z,21.42
2023-05-09T11:59:57.845Z,21.55
2023-05-09T12:00:57.799Z,21.70
2023-05-09T12:01:57.791Z,21.77
2023-05-09T12:02:58.918Z,21.70
2023-05-09T12:03:57.891Z,21.28
2023-05-09T12:04:57.828Z,21.46
2023-05-09T12:05:57.732Z,21.75
2023-05-09T12:06:57.710Z,22.01
2023-05-09T12:07:57.815Z,22.06
2023-05-09T12:08:57.796Z,22.02
2023-05-09T12:09:57.803Z,21.83
2023-05-09T12:10:57.739Z,21.55
2023-05-09T12:11:57.697Z,21.67
2023-05-09T12:12:57.715Z,21.79
2023-05-09T12:13:57.673Z,21.68
2023-05-09T12:14:57.668Z,21.86
2023-05-09T12:15:57.742Z,21.71
2023-05-09T12:16:57.673Z,21.83
2023-05-09T12:17:57.650Z,21.74
2023-05-09T12:18:57.687Z,21.83
2023-05-09T12:19:57.630Z,21.79
2023-05-09T12:20:57.629Z,21.73
2023-05-09T12:21:57.786Z,21.85
2023-05-09T12:22:57.652Z,21.93
2023-05-09T12:23:57.610Z,21.86
2023-05-09T12:24:57.695Z,21.73
2023-05-09T12:25:57.818Z,21.89
2023-05-09T12:26:57.647Z,21.74
2023-05-09T12:27:59.700Z,21.90
2023-05-09T12:28:57.653Z,22.27
2023-05-09T12:29:57.616Z,22.41
2023-05-09T12:30:57.716Z,22.67
2023-05-09T12:31:57.584Z,22.97
2023-05-09T12:32:57.672Z,23.15
2023-05-09T12:33:57.896Z,23.19
2023-05-09T12:34:57.525Z,23.14
2023-05-09T12:35:57.528Z,23.15
2023-05-09T12:36:57.521Z,23.03
2023-05-09T12:37:57.489Z,22.84
2023-05-09T12:38:57.544Z,22.64
2023-05-09T12:39:57.564Z,22.60
2023-05-09T12:40:57.534Z,22.56
2023-05-09T12:42:01.473Z,22.52
2023-05-09T12:42:57.572Z,22.75
2023-05-09T12:43:57.488Z,22.74
2023-05-09T12:44:57.452Z,22.93
2023-05-09T12:45:57.526Z,22.94
2023-05-09T12:46:57.569Z,22.54
2023-05-09T12:47:58.516Z,22.29
2023-05-09T12:48:57.528Z,22.02
2023-05-09T12:49:57.410Z,21.74
2023-05-09T12:50:57.409Z,21.90
2023-05-09T12:51:57.534Z,21.49